createdAt,value
2017-10-16T00:00:00.892Z,93.23
2017-10-16T00:02:27.126Z,92.84
2017-10-16T00:04:53.373Z,92.66
2017-10-16T00:07:19.612Z,93.22
2017-10-16T00:09:45.815Z,92.40
2017-10-16T00:12:12.050Z,92.24
2017-10-16T00:14:38.274Z,92.18
2017-10-16T00:17:04.541Z,92.53
2017-10-16T00:19:30.776Z,93.00
2017-10-16T00:21:57.004Z,92.92
2017-10-16T00:24:23.238Z,92.38
2017-10-16T00:26:49.433Z,93.05
2017-10-16T00:29:15.657Z,92.53
2017-10-16T00:31:41.908Z,92.77
2017-10-16T00:34:08.126Z,92.44
2017-10-16T00:36:34.361Z,93.00
2017-10-16T00:39:00.584Z,92.94
2017-10-16T00:41:26.869Z,92.95
2017-10-16T00:43:53.077Z,92.80
2017-10-16T00:46:19.282Z,93.16
2017-10-16T00:48:45.624Z,93.01
2017-10-16T00:51:11.860Z,92.69
2017-10-16T00:53:38.133Z,93.10
2017-10-16T00:56:04.365Z,93.29
2017-10-16T00:58:30.585Z,92.59
2017-10-16T01:00:56.826Z,92.77
2017-10-16T01:03:23.046Z,92.73
2017-10-16T01:05:49.291Z,92.82
2017-10-16T01:08:15.527Z,92.96
2017-10-16T01:10:41.765Z,93.06
2017-10-16T01:13:08.013Z,93.45
2017-10-16T01:15:34.249Z,94.66
2017-10-16T01:18:00.510Z,94.43
2017-10-16T01:20:26.719Z,94.51
2017-10-16T01:22:52.936Z,94.29
2017-10-16T01:25:19.137Z,94.68
2017-10-16T01:27:45.367Z,95.03
2017-10-16T01:30:11.611Z,94.48
2017-10-16T01:32:37.848Z,93.72
2017-10-16T01:35:04.075Z,92.95
2017-10-16T01:37:30.479Z,93.43
2017-10-16T01:39:56.693Z,92.47
2017-10-16T01:42:22.960Z,92.64
2017-10-16T01:44:49.167Z,93.53
2017-10-16T01:47:15.398Z,93.27
2017-10-16T01:49:41.753Z,92.32
2017-10-16T01:52:07.983Z,92.37
2017-10-16T01:54:34.241Z,92.76
2017-10-16T01:57:00.456Z,92.95
2017-10-16T01:59:26.691Z,92.79
2017-10-16T02:01:52.899Z,92.86
2017-10-16T02:04:19.135Z,92.90
2017-10-16T02:06:45.382Z,93.15
2017-10-16T02:09:11.600Z,93.06
2017-10-16T02:11:37.823Z,92.92
2017-10-16T02:14:04.046Z,93.21
2017-10-16T02:16:30.271Z,92.96
2017-10-16T02:18:56.498Z,93.26
2017-10-16T02:21:22.705Z,93.61
2017-10-16T02:23:48.920Z,94.06
2017-10-16T02:26:15.160Z,94.04
2017-10-16T02:28:41.396Z,94.00
2017-10-16T02:31:07.658Z,93.43
2017-10-16T02:33:33.897Z,94.01
2017-10-16T02:36:00.166Z,93.96
2017-10-16T02:38:26.400Z,94.11
2017-10-16T02:40:52.635Z,93.37
2017-10-16T02:43:18.904Z,93.19
2017-10-16T02:45:45.147Z,93.10
2017-10-16T02:48:11.373Z,93.52
2017-10-16T02:50:37.618Z,93.33
2017-10-16T02:53:03.834Z,93.37
2017-10-16T02:55:30.061Z,93.35
2017-10-16T02:57:56.311Z,93.52
2017-10-16T03:00:22.539Z,93.76
2017-10-16T03:02:48.797Z,93.55
2017-10-16T03:05:15.037Z,93.30
2017-10-16T03:07:41.320Z,93.67
2017-10-16T03:10:07.553Z,93.65
2017-10-16T03:12:33.788Z,92.77
2017-10-16T03:15:00.013Z,93.63
2017-10-16T03:17:26.243Z,93.73
2017-10-16T03:19:52.486Z,93.75
2017-10-16T03:22:18.722Z,93.58
2017-10-16T03:24:44.952Z,94.35
2017-10-16T03:27:11.192Z,94.58
2017-10-16T03:29:37.430Z,93.88
2017-10-16T03:32:03.696Z,93.92
2017-10-16T03:34:29.925Z,93.06
2017-10-16T03:36:56.167Z,93.47
2017-10-16T03:39:22.408Z,93.42
2017-10-16T03:41:48.628Z,93.62
2017-10-16T03:44:14.869Z,93.24
2017-10-16T03:46:41.194Z,93.12
2017-10-16T03:49:07.422Z,92.62
2017-10-16T03:51:33.649Z,92.51
2017-10-16T03:53:59.870Z,92.98
2017-10-16T03:56:26.130Z,94.27
2017-10-16T03:58:52.368Z,94.00
2017-10-16T04:01:18.588Z,93.15
2017-10-16T04:03:44.828Z,93.04
2017-10-16T04:06:11.062Z,93.32
2017-10-16T04:08:37.341Z,93.29
2017-10-16T04:11:03.594Z,93.42
2017-10-16T04:13:29.873Z,93.29
2017-10-16T04:15:56.163Z,93.40
2017-10-16T04:18:22.397Z,93.25
2017-10-16T04:20:48.686Z,93.79
2017-10-16T04:23:14.939Z,93.68
2017-10-16T04:25:41.169Z,92.48
2017-10-16T04:28:07.413Z,92.65
2017-10-16T04:30:33.642Z,92.89
2017-10-16T04:32:59.867Z,93.26
2017-10-16T04:35:26.120Z,93.04
2017-10-16T04:37:52.361Z,93.94
2017-10-16T04:40:18.586Z,92.97
2017-10-16T04:42:44.824Z,92.98
2017-10-16T04:45:11.086Z,92.04
2017-10-16T04:47:37.319Z,91.72
2017-10-16T04:50:03.542Z,92.03
2017-10-16T04:52:29.785Z,91.69
2017-10-16T04:54:56.014Z,91.60
2017-10-16T04:57:22.278Z,91.85
2017-10-16T04:59:48.521Z,91.05
2017-10-16T05:02:14.768Z,90.76
2017-10-16T05:04:41.012Z,90.56
2017-10-16T05:07:07.259Z,89.67
2017-10-16T05:09:33.604Z,87.94
2017-10-16T05:11:59.851Z,84.17
2017-10-16T05:14:26.082Z,81.87
2017-10-16T05:16:52.322Z,81.85
2017-10-16T05:19:18.576Z,81.37
2017-10-16T05:21:44.806Z,79.75
2017-10-16T05:24:11.052Z,72.29
2017-10-16T05:26:37.277Z,68.44
2017-10-16T05:29:03.538Z,66.95
2017-10-16T05:31:29.802Z,66.00
2017-10-16T05:33:56.042Z,65.45
2017-10-16T05:36:22.283Z,64.24
2017-10-16T05:38:48.508Z,60.85
2017-10-16T05:41:14.739Z,58.57
2017-10-16T05:43:40.986Z,55.71
2017-10-16T05:46:07.257Z,52.75
2017-10-16T05:48:33.482Z,52.03
2017-10-16T05:50:59.707Z,50.50
2017-10-16T05:53:25.970Z,49.89
2017-10-16T05:55:52.212Z,49.64
2017-10-16T05:58:18.426Z,48.08
2017-10-16T06:00:44.651Z,48.04
2017-10-16T06:03:10.874Z,49.01
2017-10-16T06:05:37.104Z,48.73
2017-10-16T06:08:03.335Z,48.42
2017-10-16T06:10:29.563Z,45.75
2017-10-16T06:12:55.790Z,44.43
2017-10-16T06:15:22.021Z,43.41
2017-10-16T06:17:48.287Z,44.44
2017-10-16T06:20:14.531Z,45.11
2017-10-16T06:22:40.772Z,44.22
2017-10-16T06:25:07.019Z,45.24
2017-10-16T06:27:33.259Z,42.77
2017-10-16T06:29:59.510Z,41.00
2017-10-16T06:32:25.780Z,40.49
2017-10-16T06:34:52.015Z,39.49
2017-10-16T06:37:18.419Z,37.78
2017-10-16T06:39:44.638Z,38.81
2017-10-16T06:42:10.879Z,39.06
2017-10-16T06:44:37.122Z,39.18
2017-10-16T06:47:03.371Z,40.37
2017-10-16T06:49:29.613Z,40.14
2017-10-16T06:51:55.831Z,40.11
2017-10-16T06:54:22.099Z,38.56
2017-10-16T06:56:48.486Z,37.88
2017-10-16T06:59:14.762Z,37.91
2017-10-16T07:01:40.976Z,38.21
2017-10-16T07:04:07.197Z,38.01
2017-10-16T07:06:33.474Z,37.50
2017-10-16T07:08:59.767Z,35.65
2017-10-16T07:11:26.059Z,34.50
2017-10-16T07:13:52.344Z,34.66
2017-10-16T07:16:18.629Z,35.50
2017-10-16T07:18:44.941Z,34.68
2017-10-16T07:21:11.229Z,34.85
2017-10-16T07:23:37.526Z,36.31
2017-10-16T07:26:03.811Z,37.25
2017-10-16T07:28:30.069Z,36.56
2017-10-16T07:30:56.353Z,34.77
2017-10-16T07:33:22.633Z,35.87
2017-10-16T07:35:48.930Z,34.82
2017-10-16T07:38:15.217Z,37.10
2017-10-16T07:40:41.500Z,36.84
2017-10-16T07:43:07.810Z,34.59
2017-10-16T07:45:34.092Z,35.83
2017-10-16T07:48:00.350Z,33.54
2017-10-16T07:50:26.744Z,31.42
2017-10-16T07:52:53.004Z,32.65
2017-10-16T07:55:19.405Z,32.03
2017-10-16T07:57:45.703Z,30.87
2017-10-16T08:00:11.985Z,31.85
2017-10-16T08:02:38.260Z,32.20
2017-10-16T08:05:04.525Z,31.99
2017-10-16T08:07:30.847Z,32.37
2017-10-16T08:09:57.118Z,31.00
2017-10-16T08:12:23.383Z,31.63
2017-10-16T08:14:49.643Z,31.04
2017-10-16T08:17:15.922Z,31.59
2017-10-16T08:19:42.287Z,30.42
2017-10-16T08:22:08.567Z,30.67
2017-10-16T08:24:34.846Z,30.40
2017-10-16T08:27:01.114Z,28.53
2017-10-16T08:29:27.396Z,27.10
2017-10-16T08:31:53.734Z,26.15
2017-10-16T08:34:20.009Z,27.33
2017-10-16T08:36:46.256Z,27.20
2017-10-16T08:39:12.564Z,27.43
2017-10-16T08:41:38.829Z,28.40
2017-10-16T08:44:05.224Z,27.84
2017-10-16T08:46:31.503Z,28.02
2017-10-16T08:48:57.778Z,27.25
2017-10-16T08:51:24.040Z,28.79
2017-10-16T08:53:50.313Z,27.71
2017-10-16T08:56:16.580Z,27.19
2017-10-16T08:58:42.876Z,27.08
2017-10-16T09:01:09.155Z,28.05
2017-10-16T09:03:35.472Z,26.03
2017-10-16T09:06:01.745Z,24.18
2017-10-16T09:08:28.012Z,24.13
2017-10-16T09:10:54.305Z,26.49
2017-10-16T09:13:20.587Z,24.83
2017-10-16T09:15:46.909Z,23.73
2017-10-16T09:18:13.232Z,23.68
2017-10-16T09:20:39.509Z,24.43
2017-10-16T09:23:05.781Z,22.54
2017-10-16T09:25:32.049Z,22.56
2017-10-16T09:27:58.351Z,23.27
2017-10-16T09:30:24.795Z,24.00
2017-10-16T09:32:51.072Z,24.01
2017-10-16T09:35:17.355Z,24.81
2017-10-16T09:37:43.625Z,24.18
2017-10-16T09:40:09.917Z,24.81
2017-10-16T09:42:36.189Z,24.20
2017-10-16T09:45:02.460Z,24.90
2017-10-16T09:47:28.809Z,24.95
2017-10-16T09:49:55.087Z,23.78
2017-10-16T09:52:21.391Z,22.59
2017-10-16T09:54:47.666Z,23.19
2017-10-16T09:57:13.931Z,22.73
2017-10-16T09:59:40.199Z,22.72
2017-10-16T10:02:06.457Z,23.04
2017-10-16T10:04:32.832Z,23.44
2017-10-16T10:06:59.095Z,22.87
2017-10-16T10:09:25.391Z,24.57
2017-10-16T10:11:51.652Z,22.82
2017-10-16T10:14:17.930Z,24.13
2017-10-16T10:16:44.246Z,24.90
2017-10-16T10:19:10.528Z,24.01
2017-10-16T10:21:36.793Z,25.24
2017-10-16T10:24:03.060Z,26.34
2017-10-16T10:26:29.326Z,24.46
2017-10-16T10:28:55.605Z,25.45
2017-10-16T10:31:21.945Z,25.60
2017-10-16T10:33:48.252Z,25.87
2017-10-16T10:36:14.513Z,26.37
2017-10-16T10:38:40.787Z,25.30
2017-10-16T10:41:07.098Z,24.19
2017-10-16T10:43:33.362Z,24.51
2017-10-16T10:45:59.615Z,23.66
2017-10-16T10:48:25.876Z,23.42
2017-10-16T10:50:52.135Z,23.80
2017-10-16T10:53:18.400Z,23.23
2017-10-16T10:55:44.667Z,23.67
2017-10-16T10:58:10.923Z,22.59
2017-10-16T11:00:37.197Z,24.46
2017-10-16T11:03:03.453Z,23.61
2017-10-16T11:05:29.765Z,22.89
2017-10-16T11:07:56.037Z,24.59
2017-10-16T11:10:22.316Z,24.94
2017-10-16T11:12:48.637Z,25.20
2017-10-16T11:15:14.892Z,25.03
2017-10-16T11:17:41.178Z,24.71
2017-10-16T11:20:07.448Z,25.06
2017-10-16T11:22:33.712Z,24.63
2017-10-16T11:25:00.009Z,24.05
2017-10-16T11:27:26.289Z,24.90
2017-10-16T11:29:52.589Z,24.39
2017-10-16T11:32:18.864Z,23.39
2017-10-16T11:34:45.119Z,23.88
2017-10-16T11:37:11.374Z,24.62
2017-10-16T11:39:37.637Z,25.08
2017-10-16T11:42:03.915Z,25.82
2017-10-16T11:44:30.195Z,26.42
2017-10-16T11:46:56.453Z,27.61
2017-10-16T11:49:22.781Z,28.07
2017-10-16T11:51:49.099Z,27.18
2017-10-16T11:54:15.560Z,25.62
2017-10-16T11:56:41.857Z,24.78
2017-10-16T11:59:08.123Z,23.60
2017-10-16T12:01:34.384Z,23.84
2017-10-16T12:04:00.666Z,24.56
2017-10-16T12:06:26.932Z,25.04
2017-10-16T12:08:53.220Z,23.28
2017-10-16T12:11:19.497Z,22.01
2017-10-16T12:13:45.794Z,21.83
2017-10-16T12:16:12.067Z,22.08
2017-10-16T12:18:38.355Z,22.08
2017-10-16T12:21:04.774Z,21.03
2017-10-16T12:23:31.037Z,21.48
2017-10-16T12:25:57.298Z,22.00
2017-10-16T12:28:23.604Z,22.07
2017-10-16T12:30:49.872Z,22.27
2017-10-16T12:33:16.131Z,22.19
2017-10-16T12:35:42.401Z,22.17
2017-10-16T12:38:08.696Z,23.21
2017-10-16T12:40:34.956Z,23.36
2017-10-16T12:43:01.216Z,22.89
2017-10-16T12:45:27.528Z,23.21
2017-10-16T12:47:53.798Z,23.78
2017-10-16T12:50:20.153Z,23.14
2017-10-16T12:52:46.422Z,22.51
2017-10-16T12:55:12.829Z,23.22
2017-10-16T12:57:39.094Z,22.87
2017-10-16T13:00:05.366Z,22.46
2017-10-16T13:02:31.612Z,22.26
2017-10-16T13:04:58.058Z,23.20
2017-10-16T13:07:26.183Z,23.20
2017-10-16T13:09:53.025Z,24.41
2017-10-16T13:12:19.628Z,24.50
2017-10-16T13:14:45.915Z,25.26
2017-10-16T13:17:12.217Z,24.77
2017-10-16T13:19:38.617Z,24.20
2017-10-16T13:22:04.929Z,26.18
2017-10-16T13:24:31.219Z,27.30
2017-10-16T13:26:57.486Z,29.11
2017-10-16T13:29:23.805Z,31.04
2017-10-16T13:31:50.073Z,33.37
2017-10-16T13:34:16.329Z,34.11
2017-10-16T13:36:42.641Z,35.33
2017-10-16T13:39:09.020Z,35.53
2017-10-16T13:41:35.422Z,37.11
2017-10-16T13:44:01.709Z,38.32
2017-10-16T13:46:28.098Z,38.61
2017-10-16T13:48:54.408Z,39.46
2017-10-16T13:51:20.717Z,39.81
2017-10-16T13:53:47.044Z,40.35
2017-10-16T13:56:13.344Z,40.08
2017-10-16T13:58:39.622Z,40.12
2017-10-16T14:01:05.923Z,40.51
2017-10-16T14:03:32.199Z,40.59
2017-10-16T14:05:58.585Z,41.29
2017-10-16T14:08:24.883Z,40.43
2017-10-16T14:10:51.225Z,40.60
2017-10-16T14:13:17.497Z,40.69
2017-10-16T14:15:43.792Z,40.80
2017-10-16T14:18:10.111Z,40.85
2017-10-16T14:20:36.406Z,41.57
2017-10-16T14:23:02.689Z,41.23
2017-10-16T14:25:28.966Z,41.31
2017-10-16T14:27:55.414Z,41.33
2017-10-16T14:30:21.759Z,41.89
2017-10-16T14:32:48.047Z,41.90
2017-10-16T14:35:14.339Z,41.83
2017-10-16T14:37:40.617Z,42.39
2017-10-16T14:40:06.902Z,41.89
2017-10-16T14:42:33.208Z,42.99
2017-10-16T14:44:59.511Z,43.38
2017-10-16T14:47:25.808Z,43.80
2017-10-16T14:49:52.084Z,44.28
2017-10-16T14:52:18.376Z,44.02
2017-10-16T14:54:44.657Z,44.76
2017-10-16T14:57:10.952Z,45.72
2017-10-16T14:59:37.285Z,47.35
2017-10-16T15:02:03.548Z,48.36
2017-10-16T15:04:29.805Z,50.59
2017-10-16T15:06:56.113Z,51.86
2017-10-16T15:09:22.403Z,53.46
2017-10-16T15:11:48.665Z,54.53
2017-10-16T15:14:14.942Z,55.51
2017-10-16T15:16:41.217Z,56.13
2017-10-16T15:19:07.503Z,57.19
2017-10-16T15:21:33.820Z,58.32
2017-10-16T15:24:00.088Z,59.61
2017-10-16T15:26:26.354Z,60.50
2017-10-16T15:28:52.630Z,61.48
2017-10-16T15:31:18.952Z,62.32
2017-10-16T15:33:45.217Z,63.05
2017-10-16T15:36:11.466Z,62.99
2017-10-16T15:38:37.747Z,63.76
2017-10-16T15:41:04.027Z,64.53
2017-10-16T15:43:30.346Z,64.88
2017-10-16T15:45:56.606Z,66.27
2017-10-16T15:48:22.926Z,66.95
2017-10-16T15:50:49.204Z,68.26
2017-10-16T15:53:15.459Z,69.04
2017-10-16T15:55:41.712Z,68.97
2017-10-16T15:58:08.019Z,68.75
2017-10-16T16:00:34.300Z,68.75
2017-10-16T16:03:00.588Z,69.09
2017-10-16T16:05:26.838Z,69.94
2017-10-16T16:07:53.102Z,70.57
2017-10-16T16:10:19.377Z,70.93
2017-10-16T16:12:45.691Z,71.59
2017-10-16T16:15:11.951Z,72.69
2017-10-16T16:17:38.226Z,72.97
2017-10-16T16:20:04.548Z,72.47
2017-10-16T16:22:30.832Z,71.86
2017-10-16T16:24:57.141Z,71.86
2017-10-16T16:27:23.412Z,72.84
2017-10-16T16:29:49.686Z,73.75
2017-10-16T16:32:16.118Z,74.99
2017-10-16T16:34:42.390Z,76.39
2017-10-16T16:37:08.726Z,75.84
2017-10-16T16:39:34.986Z,74.50
2017-10-16T16:42:01.269Z,75.20
2017-10-16T16:44:27.550Z,76.61
2017-10-16T16:46:53.834Z,76.97
2017-10-16T16:49:20.155Z,77.62
2017-10-16T16:51:46.415Z,77.87
2017-10-16T16:54:13.037Z,77.62
2017-10-16T16:56:39.489Z,78.23
2017-10-16T16:59:06.101Z,78.37
2017-10-16T17:01:32.607Z,79.06
2017-10-16T17:03:59.048Z,79.98
2017-10-16T17:06:25.564Z,80.53
2017-10-16T17:08:51.853Z,79.50
2017-10-16T17:11:18.449Z,79.42
2017-10-16T17:13:45.091Z,79.53
2017-10-16T17:16:11.478Z,78.92
2017-10-16T17:18:37.772Z,79.47
2017-10-16T17:21:04.032Z,79.50
2017-10-16T17:23:30.305Z,79.98
2017-10-16T17:25:56.572Z,79.51
2017-10-16T17:28:22.854Z,79.47
2017-10-16T17:30:49.125Z,79.27
2017-10-16T17:33:15.398Z,81.46
2017-10-16T17:35:41.665Z,81.52
2017-10-16T17:38:07.945Z,81.13
2017-10-16T17:40:34.287Z,80.94
2017-10-16T17:43:00.545Z,81.39
2017-10-16T17:45:26.804Z,82.97
2017-10-16T17:47:53.112Z,82.77
2017-10-16T17:50:19.389Z,82.95
2017-10-16T17:52:45.782Z,82.23
2017-10-16T17:55:12.043Z,82.69
2017-10-16T17:57:38.291Z,82.75
2017-10-16T18:00:04.597Z,82.86
2017-10-16T18:02:30.861Z,83.33
2017-10-16T18:04:57.141Z,84.36
2017-10-16T18:07:23.408Z,84.39
2017-10-16T18:09:49.659Z,84.22
2017-10-16T18:12:15.969Z,85.24
2017-10-16T18:14:42.229Z,85.52
2017-10-16T18:17:08.502Z,85.72
2017-10-16T18:19:34.773Z,85.26
2017-10-16T18:22:01.028Z,85.12
2017-10-16T18:24:27.381Z,85.44
2017-10-16T18:26:53.648Z,85.43
2017-10-16T18:29:19.911Z,84.84
2017-10-16T18:31:46.181Z,85.13
2017-10-16T18:34:12.443Z,84.92
2017-10-16T18:36:38.722Z,84.74
2017-10-16T18:39:05.184Z,85.50
2017-10-16T18:41:31.459Z,86.13
2017-10-16T18:43:57.721Z,86.67
2017-10-16T18:46:24.059Z,86.42
2017-10-16T18:48:50.364Z,87.68
2017-10-16T18:51:16.624Z,87.35
2017-10-16T18:53:42.898Z,86.54
2017-10-16T18:56:09.162Z,87.80
2017-10-16T18:58:35.427Z,87.83
2017-10-16T19:01:01.722Z,87.33
2017-10-16T19:03:27.989Z,89.06
2017-10-16T19:05:54.267Z,88.06
2017-10-16T19:08:20.605Z,87.49
2017-10-16T19:10:46.879Z,88.23
2017-10-16T19:13:13.147Z,88.16
2017-10-16T19:15:39.452Z,88.95
2017-10-16T19:18:05.724Z,88.75
2017-10-16T19:20:31.976Z,88.33
2017-10-16T19:22:58.251Z,88.46
2017-10-16T19:25:24.536Z,88.77
2017-10-16T19:27:50.839Z,89.80
2017-10-16T19:30:17.105Z,89.49
2017-10-16T19:32:43.423Z,89.41
2017-10-16T19:35:09.775Z,89.43
2017-10-16T19:37:36.025Z,88.98
2017-10-16T19:40:02.312Z,89.00
2017-10-16T19:42:28.587Z,88.86
2017-10-16T19:44:54.977Z,89.53
2017-10-16T19:47:21.234Z,89.76
2017-10-16T19:49:47.467Z,89.80
2017-10-16T19:52:13.720Z,90.21
2017-10-16T19:54:39.992Z,89.63
2017-10-16T19:57:06.253Z,89.91
2017-10-16T19:59:32.529Z,91.24
2017-10-16T20:01:58.797Z,90.96
2017-10-16T20:04:25.029Z,90.65
2017-10-16T20:06:51.382Z,90.27
2017-10-16T20:09:17.565Z,90.35
2017-10-16T20:11:43.839Z,91.11
2017-10-16T20:14:10.028Z,90.39
2017-10-16T20:16:36.205Z,90.59
2017-10-16T20:19:02.386Z,90.88
2017-10-16T20:21:28.579Z,91.56
2017-10-16T20:23:54.813Z,91.10
2017-10-16T20:26:21.001Z,91.04
2017-10-16T20:28:47.178Z,91.32
2017-10-16T20:31:13.366Z,92.06
2017-10-16T20:33:39.564Z,92.11
2017-10-16T20:36:05.783Z,91.85
2017-10-16T20:38:31.962Z,92.01
2017-10-16T20:40:58.164Z,91.62
2017-10-16T20:43:24.381Z,91.62
2017-10-16T20:45:50.573Z,91.59
2017-10-16T20:48:16.768Z,92.05
2017-10-16T20:50:42.936Z,91.12
2017-10-16T20:53:09.156Z,91.77
2017-10-16T20:55:35.358Z,91.61
2017-10-16T20:58:01.533Z,91.62
2017-10-16T21:00:27.739Z,91.76
2017-10-16T21:02:53.994Z,91.93
2017-10-16T21:05:20.203Z,91.24
2017-10-16T21:07:46.426Z,91.69
2017-10-16T21:10:12.632Z,92.13
2017-10-16T21:12:38.848Z,92.53
2017-10-16T21:15:05.045Z,92.60
2017-10-16T21:17:31.289Z,92.63
2017-10-16T21:19:57.467Z,92.65
2017-10-16T21:22:23.680Z,92.46
2017-10-16T21:24:49.906Z,92.66
2017-10-16T21:27:16.123Z,92.47
2017-10-16T21:29:42.372Z,92.54
2017-10-16T21:32:08.555Z,92.79
2017-10-16T21:34:34.760Z,92.64
2017-10-16T21:37:00.998Z,93.13
2017-10-16T21:39:27.238Z,92.97
2017-10-16T21:41:53.438Z,93.09
2017-10-16T21:44:19.670Z,93.34
2017-10-16T21:46:45.874Z,93.31
2017-10-16T21:49:12.105Z,92.54
2017-10-16T21:51:38.291Z,92.25
2017-10-16T21:54:04.518Z,92.47
2017-10-16T21:56:30.730Z,93.00
2017-10-16T21:58:56.934Z,92.79
2017-10-16T22:01:23.166Z,92.65
2017-10-16T22:03:49.385Z,92.82
2017-10-16T22:06:15.712Z,93.27
2017-10-16T22:08:41.915Z,93.39
2017-10-16T22:11:08.262Z,93.12
2017-10-16T22:13:34.469Z,92.76
2017-10-16T22:16:00.783Z,92.50
2017-10-16T22:18:27.017Z,92.24
2017-10-16T22:20:53.230Z,91.94
2017-10-16T22:23:19.439Z,92.00
2017-10-16T22:25:45.686Z,92.35
2017-10-16T22:28:11.943Z,92.26
2017-10-16T22:30:38.212Z,92.29
2017-10-16T22:33:04.479Z,92.65
2017-10-16T22:35:30.748Z,92.52
2017-10-16T22:37:57.046Z,92.57
2017-10-16T22:40:23.323Z,92.85
2017-10-16T22:42:49.585Z,93.17
2017-10-16T22:45:15.862Z,92.76
2017-10-16T22:47:42.127Z,92.73
2017-10-16T22:50:08.460Z,92.98
2017-10-16T22:52:34.715Z,93.19
2017-10-16T22:55:00.992Z,92.84
2017-10-16T22:57:27.267Z,92.82
2017-10-16T22:59:53.514Z,93.26
2017-10-16T23:02:19.822Z,93.03
2017-10-16T23:04:46.097Z,93.55
2017-10-16T23:07:12.358Z,93.25
2017-10-16T23:09:38.751Z,93.33
2017-10-16T23:12:05.004Z,92.92
2017-10-16T23:14:31.324Z,92.69
2017-10-16T23:16:57.573Z,92.94
2017-10-16T23:19:23.817Z,92.94
2017-10-16T23:21:50.073Z,93.04
2017-10-16T23:24:16.341Z,92.38
2017-10-16T23:26:42.624Z,92.28
2017-10-16T23:29:08.897Z,92.56
2017-10-16T23:31:35.149Z,92.82
2017-10-16T23:34:01.412Z,92.81
2017-10-16T23:36:27.669Z,92.80
2017-10-16T23:38:53.968Z,93.51
2017-10-16T23:41:20.237Z,92.96
2017-10-16T23:43:46.496Z,92.95
2017-10-16T23:46:12.782Z,93.09
2017-10-16T23:48:39.076Z,93.19
2017-10-16T23:51:05.359Z,93.21
2017-10-16T23:53:31.646Z,93.30
2017-10-16T23:55:57.950Z,93.60
2017-10-16T23:58:24.211Z,93.69
